Time;durP1;ratioP1;P1;durP2;ratioP2;P2;SDS_P1;SDS_P2;PMS_P1;PMS_P2;Temp;Humidity;BMP_temperature;BMP_pressure;BME280_temperature;BME280_humidity;BME280_pressure;Samples;Min_cycle;Max_cycle;Signal;HPM_P1;HPM_P2
2024/01/10 00:01:26;;;;;;;18.00;10.57;;;-1.10;99.90;;;-2.67;59.58;101583.78;4961786;28;20137;-79
2024/01/10 00:03:54;;;;;;;18.20;10.65;;;-2.40;99.90;;;-2.81;59.29;101563.41;4954085;28;20765;-80
2024/01/10 00:06:23;;;;;;;22.77;12.35;;;-0.60;99.90;;;-2.64;59.59;101589.97;4968889;28;20078;-80
2024/01/10 00:08:50;;;;;;;17.33;10.40;;;-0.80;99.90;;;-2.76;59.37;101558.44;4946176;28;20043;-79
2024/01/10 00:11:17;;;;;;;20.05;11.00;;;-0.90;99.90;;;-2.72;59.67;101570.69;4948600;28;20040;-79
2024/01/10 00:13:45;;;;;;;19.17;11.35;;;-0.80;99.90;;;-3.00;58.59;101523.81;4959475;28;20042;-79
2024/01/10 00:16:13;;;;;;;17.50;10.20;;;-0.70;99.90;;;-2.85;59.36;101551.16;4960237;28;20070;-80
2024/01/10 00:18:40;;;;;;;20.85;10.40;;;-1.60;99.90;;;-2.85;59.29;101558.88;4961578;28;20090;-79
2024/01/10 00:21:08;;;;;;;16.65;9.52;;;-1.00;99.90;;;-3.00;59.24;101521.25;4952669;28;20043;-79
2024/01/10 00:23:35;;;;;;;18.63;11.30;;;-1.30;99.90;;;-3.46;58.65;101462.28;4953624;28;20577;-80
2024/01/10 00:26:02;;;;;;;16.40;9.70;;;-1.20;99.90;;;-2.86;59.35;101549.38;4974122;28;20043;-79
2024/01/10 00:28:29;;;;;;;17.45;10.05;;;-0.80;99.90;;;-2.85;59.36;101546.00;4951375;28;20071;-79
2024/01/10 00:30:56;;;;;;;15.98;10.13;;;-1.00;99.90;;;-3.45;59.62;101446.03;4969145;28;20046;-80
2024/01/10 00:33:23;;;;;;;20.38;11.50;;;-1.00;99.90;;;-2.80;59.16;101548.81;4968773;28;20046;-78
2024/01/10 00:35:50;;;;;;;18.20;11.43;;;-1.00;99.90;;;-2.76;58.71;101561.03;4962508;28;20573;-79
2024/01/10 00:38:17;;;;;;;18.50;12.10;;;-1.20;99.90;;;-3.35;59.22;101466.28;4953496;28;20094;-78
2024/01/10 00:40:44;;;;;;;18.08;11.40;;;-1.20;99.90;;;-3.02;59.14;101532.28;4944528;28;20055;-80
2024/01/10 00:43:11;;;;;;;20.33;11.15;;;-1.60;99.90;;;-2.94;59.41;101533.53;4972626;28;20053;-78
2024/01/10 00:45:38;;;;;;;17.65;10.60;;;0.60;99.90;;;-2.73;59.64;101566.34;4971140;28;20122;-81
2024/01/10 00:48:06;;;;;;;18.60;11.85;;;-1.40;99.90;;;-3.01;58.80;101522.06;4964220;28;20154;-80
2024/01/10 00:50:33;;;;;;;21.67;12.15;;;-1.10;99.90;;;-2.81;59.51;101549.63;4961122;28;20046;-79
2024/01/10 00:53:00;;;;;;;22.02;11.93;;;-3.30;99.90;;;-3.16;59.50;101490.38;4958179;28;20043;-80
2024/01/10 00:55:28;;;;;;;17.40;10.68;;;-1.20;99.90;;;-2.81;58.67;101545.38;4960875;28;20054;-79
2024/01/10 00:57:55;;;;;;;24.08;10.65;;;-0.10;99.90;;;-2.84;58.28;101542.63;4963881;28;20137;-80
2024/01/10 01:00:22;;;;;;;17.05;11.02;;;-1.00;99.90;;;-2.77;58.51;101549.84;4971952;28;20061;-79
2024/01/10 01:02:49;;;;;;;20.65;12.02;;;-0.80;99.90;;;-3.08;59.25;101503.63;4973992;28;20053;-80
2024/01/10 01:05:16;;;;;;;20.83;11.75;;;-1.20;99.90;;;-2.83;58.74;101541.81;4957270;28;20520;-79
2024/01/10 01:07:43;;;;;;;19.10;12.15;;;-0.70;99.90;;;-2.75;59.81;101547.34;4972716;28;20892;-80
2024/01/10 01:10:12;;;;;;;17.75;11.05;;;-0.90;99.90;;;-2.88;58.28;101528.72;4957413;28;20431;-79
2024/01/10 01:12:39;;;;;;;21.15;11.85;;;-0.50;99.90;;;-2.86;59.09;101534.81;4957322;28;20053;-80
2024/01/10 01:15:07;;;;;;;21.10;12.20;;;-0.90;99.90;;;-2.89;58.39;101536.34;4965019;28;20055;-80
2024/01/10 01:17:36;;;;;;;18.90;11.57;;;-0.80;99.90;;;-2.67;59.01;101576.97;4961418;28;20130;-81
2024/01/10 01:20:05;;;;;;;18.55;10.80;;;-1.00;99.90;;;-2.74;59.79;101551.69;4946463;28;20049;-80
2024/01/10 01:22:32;;;;;;;18.30;10.82;;;-1.10;99.90;;;-2.61;60.01;101563.50;4953198;28;20066;-79
2024/01/10 01:24:59;;;;;;;19.80;11.50;;;-0.90;99.90;;;-2.62;59.17;101566.88;4956078;28;20058;-81
2024/01/10 01:27:26;;;;;;;18.27;11.73;;;-0.90;99.90;;;-2.65;59.13;101561.59;4963358;28;20462;-80
2024/01/10 01:29:53;;;;;;;20.13;12.38;;;-0.70;99.90;;;-2.62;58.66;101565.16;4955717;28;20077;-79
2024/01/10 01:32:21;;;;;;;23.23;12.40;;;-0.90;99.90;;;-2.78;58.59;101536.88;4961220;28;20055;-79
2024/01/10 01:34:48;;;;;;;18.50;10.07;;;-1.00;99.90;;;-2.80;58.41;101534.25;4984800;28;20054;-79
2024/01/10 01:37:15;;;;;;;19.27;10.90;;;-1.00;99.90;;;-2.72;58.86;101552.66;4959078;28;20050;-81
2024/01/10 01:39:42;;;;;;;19.42;12.65;;;-0.90;99.90;;;-2.72;58.24;101556.09;4963890;28;20549;-80
2024/01/10 01:42:09;;;;;;;21.90;12.68;;;-0.80;99.90;;;-2.78;57.73;101537.78;4951701;28;20520;-80
2024/01/10 01:44:36;;;;;;;23.00;11.95;;;-0.50;99.90;;;-2.64;57.71;101571.06;4965415;28;20753;-80
2024/01/10 01:47:04;;;;;;;19.75;12.55;;;-0.10;99.90;;;-2.91;57.68;101520.81;4954874;28;20591;-80
2024/01/10 01:49:31;;;;;;;17.70;11.70;;;-1.10;99.90;;;-2.70;57.53;101548.47;4943841;28;20729;-79
2024/01/10 01:52:00;;;;;;;18.15;12.15;;;-1.10;99.90;;;-2.68;57.66;101564.88;4970339;28;20054;-79
2024/01/10 01:54:27;;;;;;;18.42;10.32;;;-0.80;99.90;;;-3.11;57.36;101493.19;4962874;28;20062;-79
2024/01/10 01:56:54;;;;;;;20.42;11.45;;;-0.80;99.90;;;-2.76;57.68;101540.41;4951882;28;20071;-79
2024/01/10 01:59:21;;;;;;;20.73;11.27;;;-1.20;99.90;;;-2.59;57.05;101567.03;4975932;28;20579;-80
2024/01/10 02:01:50;;;;;;;17.55;11.32;;;-1.20;99.90;;;-3.07;56.96;101487.38;4969957;28;20050;-80
2024/01/10 02:04:17;;;;;;;18.17;10.90;;;-1.10;99.90;;;-2.63;57.39;101559.97;4965556;28;20043;-80
2024/01/10 02:06:45;;;;;;;20.83;12.10;;;-0.90;99.90;;;-2.65;57.55;101553.84;4960547;28;20138;-80
2024/01/10 02:09:12;;;;;;;20.45;11.15;;;-0.90;99.90;;;-3.30;57.60;101449.38;4950257;29;20054;-80
2024/01/10 02:11:38;;;;;;;23.35;12.20;;;-1.00;99.90;;;-2.64;57.88;101550.47;4973158;28;20062;-80
2024/01/10 02:14:06;;;;;;;21.58;12.68;;;-0.90;99.90;;;-2.73;57.84;101528.56;4968031;28;20058;-80
2024/01/10 02:16:33;;;;;;;21.13;13.05;;;-0.60;99.90;;;-2.74;57.53;101521.66;4982452;28;20138;-80
2024/01/10 02:19:01;;;;;;;20.25;10.48;;;-1.40;99.90;;;-2.70;57.10;101520.13;4964028;28;20094;-81
2024/01/10 02:21:28;;;;;;;17.65;11.05;;;-0.70;99.90;;;-2.80;57.29;101513.63;4958760;28;20043;-81
2024/01/10 02:23:55;;;;;;;21.00;11.85;;;-0.70;99.90;;;-2.71;57.98;101519.22;4969839;28;20038;-80
2024/01/10 02:26:22;;;;;;;22.05;12.18;;;-0.70;99.90;;;-2.53;58.12;101551.84;4966183;28;20046;-80
2024/01/10 02:28:50;;;;;;;22.63;12.70;;;-0.50;99.90;;;-2.96;58.07;101462.19;4966672;28;20421;-79
2024/01/10 02:31:17;;;;;;;20.55;13.10;;;-0.60;99.90;;;-2.50;57.79;101548.53;4953310;28;20701;-80
2024/01/10 02:33:44;;;;;;;20.23;11.90;;;-0.80;99.90;;;-2.67;56.48;101520.25;4970034;28;20101;-80
2024/01/10 02:36:11;;;;;;;18.83;11.75;;;-0.10;99.90;;;-2.84;56.29;101498.81;4956541;28;20047;-81
2024/01/10 02:38:39;;;;;;;21.00;12.65;;;-0.40;99.90;;;-2.63;56.69;101532.47;4971594;28;20078;-80
2024/01/10 02:41:06;;;;;;;21.50;13.80;;;-0.90;99.90;;;-2.62;56.61;101534.25;4950807;28;20047;-80
2024/01/10 02:43:34;;;;;;;19.52;12.90;;;-0.50;99.90;;;-2.71;57.39;101529.53;4951562;28;20054;-80
2024/01/10 02:46:01;;;;;;;20.35;11.85;;;-0.40;99.90;;;-3.38;57.00;101435.25;4960062;28;20039;-80
2024/01/10 02:48:27;;;;;;;21.10;12.38;;;-1.30;99.90;;;-2.74;56.90;101513.03;4960631;28;20042;-80
2024/01/10 02:50:55;;;;;;;23.27;14.02;;;-0.10;99.90;;;-2.81;56.79;101505.81;4960328;28;20056;-81
2024/01/10 02:53:22;;;;;;;20.50;11.27;;;-0.20;99.90;;;-2.80;57.30;101497.28;4940431;28;20402;-78
2024/01/10 02:55:50;;;;;;;21.25;12.00;;;-1.00;99.90;;;-2.72;57.08;101517.47;4962484;28;20070;-78
2024/01/10 02:58:18;;;;;;;20.08;11.40;;;-0.40;99.90;;;-3.30;57.23;101397.03;4944247;28;20046;-78
2024/01/10 03:00:45;;;;;;;21.23;13.18;;;-0.40;99.90;;;-2.73;56.65;101500.22;4958779;28;20496;-80
2024/01/10 03:03:12;;;;;;;24.33;12.68;;;-0.20;99.90;;;-2.74;56.70;101500.16;4951569;28;20475;-80
2024/01/10 03:05:39;;;;;;;20.55;13.07;;;-1.00;99.90;;;-2.72;57.36;101507.16;4967158;28;20052;-80
2024/01/10 03:08:06;;;;;;;23.33;12.65;;;-1.10;99.90;;;-2.69;56.96;101509.00;4962922;28;20058;-80
2024/01/10 03:10:34;;;;;;;20.17;12.00;;;-0.90;99.90;;;-2.72;57.19;101501.13;4955577;28;20689;-80
2024/01/10 03:13:01;;;;;;;21.13;12.32;;;-1.50;99.90;;;-2.74;57.23;101493.31;4952735;28;20106;-79
2024/01/10 03:15:28;;;;;;;21.85;12.65;;;-0.20;99.90;;;-2.86;56.44;101482.41;4938061;28;20298;-80
2024/01/10 03:17:55;;;;;;;19.73;12.75;;;-0.60;99.90;;;-2.76;56.43;101506.91;4981452;28;20142;-79
2024/01/10 03:20:22;;;;;;;20.52;12.57;;;-1.80;99.90;;;-3.02;57.64;101452.47;4943319;28;20102;-80
2024/01/10 03:22:49;;;;;;;23.02;11.82;;;-1.20;99.90;;;-2.69;57.35;101506.44;4956341;28;20055;-79
2024/01/10 03:25:16;;;;;;;19.55;11.90;;;-1.50;99.90;;;-2.74;56.76;101495.00;4969261;28;20142;-79
2024/01/10 03:27:43;;;;;;;22.85;12.40;;;-1.30;99.90;;;-2.89;57.01;101471.97;4957760;28;20058;-79
2024/01/10 03:30:11;;;;;;;23.75;13.10;;;-0.50;99.90;;;-2.87;57.23;101484.13;4964768;28;20502;-81
2024/01/10 03:32:38;;;;;;;22.85;14.18;;;-1.50;99.90;;;-2.96;57.09;101467.34;4960598;28;20093;-80
2024/01/10 03:35:06;;;;;;;20.55;11.57;;;-0.60;99.90;;;-2.81;57.47;101490.38;4953167;28;20047;-80
2024/01/10 03:37:33;;;;;;;22.20;13.35;;;-1.00;99.90;;;-2.74;56.70;101510.44;4950658;28;20537;-80
2024/01/10 03:40:01;;;;;;;22.10;12.10;;;-1.50;99.90;;;-3.11;56.94;101458.03;4973958;28;20043;-80
2024/01/10 03:42:28;;;;;;;21.55;11.50;;;-0.70;99.90;;;-2.68;57.05;101518.50;4964462;28;20050;-80
2024/01/10 03:44:55;;;;;;;19.05;12.38;;;-0.80;99.90;;;-2.70;57.15;101512.41;4960870;28;20095;-79
2024/01/10 03:47:21;;;;;;;22.40;12.93;;;-1.00;99.90;;;-2.69;57.76;101506.44;4948019;29;20657;-79
2024/01/10 03:49:49;;;;;;;23.38;13.07;;;-0.80;99.90;;;-2.63;58.11;101518.72;4948974;28;20067;-80
2024/01/10 03:52:16;;;;;;;20.30;12.23;;;0.90;99.90;;;-2.81;57.92;101482.63;4963761;28;20421;-79
2024/01/10 03:54:43;;;;;;;24.17;13.15;;;-0.80;99.90;;;-2.65;57.81;101510.06;4951873;28;20081;-78
2024/01/10 03:57:09;;;;;;;23.42;14.13;;;-0.60;99.90;;;-2.72;57.60;101507.16;4945673;28;20039;-79
2024/01/10 03:59:36;;;;;;;22.40;12.45;;;-0.90;99.90;;;-2.94;57.57;101466.59;4938170;28;20035;-80
2024/01/10 04:02:04;;;;;;;20.48;13.35;;;-1.00;99.90;;;-3.21;57.66;101430.94;4950697;28;20055;-80
2024/01/10 04:04:32;;;;;;;22.65;13.13;;;-0.90;99.90;;;-3.31;57.82;101416.72;4966703;28;20738;-80
2024/01/10 04:06:59;;;;;;;24.38;14.45;;;-0.90;99.90;;;-2.86;58.37;101496.19;4953818;28;20089;-80
2024/01/10 04:09:26;;;;;;;22.13;13.88;;;-1.10;99.90;;;-2.75;58.33;101514.75;4956090;28;20066;-79
2024/01/10 04:11:53;;;;;;;20.13;13.45;;;-0.50;99.90;;;-2.78;57.82;101490.50;4955041;28;20065;-79
2024/01/10 04:14:20;;;;;;;25.42;14.65;;;-0.60;99.90;;;-2.67;58.20;101519.38;4950759;28;20050;-79
2024/01/10 04:16:48;;;;;;;27.42;13.82;;;-0.50;99.90;;;-2.91;57.65;101479.59;4954109;28;20087;-79
2024/01/10 04:19:15;;;;;;;23.92;13.23;;;-0.50;99.90;;;-2.86;58.76;101488.47;4957203;28;20694;-78
2024/01/10 04:21:43;;;;;;;22.15;14.25;;;-1.00;99.90;;;-2.86;58.93;101492.72;4952355;28;20046;-79
2024/01/10 04:24:10;;;;;;;21.45;12.40;;;-1.00;99.90;;;-2.82;58.76;101509.22;4950099;28;20113;-80
2024/01/10 04:26:37;;;;;;;32.50;13.27;;;-0.70;99.90;;;-2.79;59.51;101511.94;4971392;28;20039;-79
2024/01/10 04:29:04;;;;;;;23.75;13.10;;;-1.10;99.90;;;-3.01;59.25;101492.84;4969045;28;20137;-81
2024/01/10 04:31:32;;;;;;;22.08;13.95;;;-1.10;99.90;;;-3.29;58.50;101439.97;4969683;28;20042;-79
2024/01/10 04:33:59;;;;;;;21.48;14.23;;;-1.30;99.90;;;-3.21;59.16;101460.97;4936892;28;20069;-79
2024/01/10 04:36:27;;;;;;;20.90;13.32;;;-0.90;99.90;;;-3.20;58.90;101489.38;4950781;28;20054;-77
2024/01/10 04:38:54;;;;;;;24.08;12.55;;;-1.10;99.90;;;-3.30;59.35;101489.69;4959888;28;20047;-76
2024/01/10 04:41:21;;;;;;;24.90;13.90;;;-0.70;99.90;;;-3.26;60.54;101486.47;4964546;28;20047;-76
2024/01/10 04:43:49;;;;;;;24.52;13.68;;;-1.00;99.90;;;-3.25;60.50;101490.81;4960444;28;20094;-76
2024/01/10 04:46:16;;;;;;;22.17;12.40;;;-1.00;99.90;;;-3.28;62.29;101475.22;4959871;28;20039;-81
2024/01/10 04:48:43;;;;;;;20.60;12.25;;;-1.20;99.90;;;-3.33;61.88;101466.38;4968053;28;20051;-79
2024/01/10 04:51:11;;;;;;;21.17;13.52;;;-1.20;99.90;;;-3.29;62.44;101455.44;4939074;28;20568;-79
2024/01/10 04:53:38;;;;;;;23.08;12.38;;;1.80;99.90;;;-3.31;61.92;101454.47;4961824;28;20042;-81
2024/01/10 04:56:05;;;;;;;23.10;14.07;;;-1.50;99.90;;;-3.07;61.08;101500.25;4959778;28;20057;-80
2024/01/10 04:58:34;;;;;;;21.45;11.95;;;-1.00;99.90;;;-3.09;62.50;101497.63;4951506;28;20128;-79
2024/01/10 05:01:01;;;;;;;22.52;13.07;;;-1.20;99.90;;;-3.65;61.82;101420.19;4967863;28;20070;-79
2024/01/10 05:03:28;;;;;;;21.00;12.38;;;1.70;99.90;;;-3.72;61.89;101411.28;4953977;28;20493;-79
2024/01/10 05:05:56;;;;;;;24.08;14.40;;;-0.40;99.90;;;-3.05;62.67;101503.78;4951845;28;20126;-81
2024/01/10 05:08:23;;;;;;;27.38;15.68;;;-1.40;99.90;;;-3.88;63.87;101383.91;4969719;28;20042;-80
2024/01/10 05:10:51;;;;;;;23.73;13.15;;;-0.20;99.90;;;-3.12;64.65;101500.06;4960781;28;20096;-80
2024/01/10 05:13:18;;;;;;;21.85;13.02;;;-1.40;99.90;;;-2.95;64.69;101523.19;4965275;28;20053;-79
2024/01/10 05:15:45;;;;;;;22.77;12.75;;;-1.40;99.90;;;-3.07;64.69;101508.88;4952440;28;20043;-78
2024/01/10 05:18:12;;;;;;;25.08;12.95;;;-1.30;99.90;;;-3.09;65.00;101500.19;4967624;28;20038;-80
2024/01/10 05:20:39;;;;;;;24.20;12.85;;;-1.20;99.90;;;-3.15;65.67;101492.16;4959770;28;20162;-78
2024/01/10 05:23:06;;;;;;;26.23;14.15;;;1.00;99.90;;;-2.94;66.79;101525.81;4954698;28;20098;-78
2024/01/10 05:25:34;;;;;;;23.58;13.15;;;-1.10;99.90;;;-3.37;66.85;101447.31;4962349;28;20195;-80
2024/01/10 05:28:01;;;;;;;20.23;13.00;;;-1.30;99.90;;;-2.99;66.98;101511.84;4967456;28;20413;-80
2024/01/10 05:30:28;;;;;;;23.15;12.77;;;0.70;99.90;;;-3.12;67.26;101489.75;4958108;28;20461;-80
2024/01/10 05:33:00;;;;;;;;;;;-1.20;99.90;;;-2.93;67.72;101511.25;4956652;28;20054;-79
2024/01/10 05:35:28;;;;;;;26.10;14.15;;;-0.90;99.90;;;-2.91;68.22;101514.78;4938887;28;19922;-79
2024/01/10 05:37:56;;;;;;;20.30;11.95;;;-1.60;99.90;;;-2.99;68.52;101504.13;4972248;28;20050;-80
2024/01/10 05:40:23;;;;;;;27.17;15.30;;;-1.00;99.90;;;-3.01;69.96;101498.00;4949765;28;20085;-80
2024/01/10 05:42:50;;;;;;;27.65;16.10;;;-1.40;99.90;;;-3.01;70.34;101496.28;4971971;28;20046;-80
2024/01/10 05:45:18;;;;;;;28.40;14.88;;;-0.90;99.90;;;-2.89;71.46;101524.38;4955882;28;20631;-80
2024/01/10 05:47:48;;;;;;;26.00;13.90;;;-1.30;99.90;;;-3.04;70.90;101497.88;4949542;28;20046;-81
2024/01/10 05:50:16;;;;;;;27.85;15.73;;;-1.10;99.90;;;-3.31;71.19;101445.03;4969854;28;20043;-80
2024/01/10 05:52:47;;;;;;;29.75;14.32;;;-1.10;99.90;;;-2.92;70.64;101511.31;4977333;28;20082;-80
2024/01/10 05:55:23;;;;;;;19.27;13.75;;;-1.10;99.90;;;-2.81;70.16;101527.34;4973650;28;20051;-80
2024/01/10 05:57:53;;;;;;;23.33;13.50;;;-0.60;99.90;;;-3.13;71.10;101468.25;4975792;28;20053;-81
2024/01/10 06:00:23;;;;;;;28.15;13.90;;;-3.10;99.90;;;-3.92;70.05;101356.22;4963685;28;20478;-80
2024/01/10 06:02:51;;;;;;;27.88;15.57;;;0.70;99.90;;;-3.72;70.49;101374.38;4951770;28;20043;-80
2024/01/10 06:05:21;;;;;;;30.27;15.80;;;-0.80;99.90;;;-3.72;70.16;101364.09;4964218;28;20053;-80
2024/01/10 06:07:49;;;;;;;24.67;13.77;;;-2.80;99.90;;;-4.10;70.49;101306.44;4972165;28;20539;-81
2024/01/10 06:10:17;;;;;;;21.20;13.25;;;-1.70;99.90;;;-3.72;71.69;101395.84;4954313;28;20057;-80
2024/01/10 06:12:48;;;;;;;23.38;12.93;;;-1.10;99.90;;;-3.33;72.12;101441.50;4960511;28;20049;-81
2024/01/10 06:15:16;;;;;;;24.08;14.65;;;-2.00;99.90;;;-3.85;72.95;101353.19;4960451;28;20134;-81
2024/01/10 06:17:45;;;;;;;24.23;13.45;;;0.30;99.90;;;-3.50;73.04;101419.19;4960861;28;20066;-81
2024/01/10 06:20:16;;;;;;;26.17;15.02;;;1.10;99.90;;;-2.79;73.26;101523.13;4973058;28;20102;-80
2024/01/10 06:22:46;;;;;;;26.00;15.55;;;-0.90;99.90;;;-3.46;71.42;101434.88;4965431;28;20182;-80
2024/01/10 06:25:13;;;;;;;28.60;15.88;;;-0.40;99.90;;;-3.70;71.88;101380.50;4940238;29;20929;-81
2024/01/10 06:27:40;;;;;;;27.50;14.00;;;-0.60;99.90;;;-3.47;71.69;101420.25;4953546;28;20446;-80
2024/01/10 06:30:09;;;;;;;24.10;14.77;;;-0.70;99.90;;;-3.80;72.01;101381.72;4967949;28;20101;-81
2024/01/10 06:32:36;;;;;;;25.50;14.25;;;-1.00;99.90;;;-3.67;72.00;101406.38;4971962;28;20047;-80
2024/01/10 06:35:04;;;;;;;21.95;12.57;;;-1.50;99.90;;;-3.63;72.11;101392.84;4952563;28;20296;-80
2024/01/10 06:37:31;;;;;;;20.77;12.20;;;-0.90;99.90;;;-3.59;72.68;101404.19;4951251;28;20054;-80
2024/01/10 06:40:07;;;;;;;;;;;-0.70;99.90;;;-2.76;72.08;101537.84;4963896;28;20047;-80
2024/01/10 06:42:38;;;;;;;21.45;12.60;;;2.30;99.90;;;-3.63;71.38;101408.28;4977240;28;19921;-80
2024/01/10 06:45:08;;;;;;;24.45;13.55;;;-0.40;99.90;;;-3.64;70.93;101434.81;4949569;28;20062;-81
2024/01/10 06:47:37;;;;;;;34.63;17.10;;;-2.40;99.90;;;-3.59;72.29;101414.47;4972595;28;20489;-80
2024/01/10 06:50:08;;;;;;;27.08;16.88;;;-0.80;99.90;;;-4.02;72.29;101354.88;4977113;28;20389;-81
2024/01/10 06:52:39;;;;;;;29.55;15.18;;;-1.90;99.90;;;-2.91;72.44;101527.69;4969170;28;20039;-81
2024/01/10 06:55:08;;;;;;;30.00;17.02;;;-0.70;99.90;;;-4.11;72.65;101338.09;4958759;28;20067;-81
2024/01/10 06:57:37;;;;;;;31.13;17.15;;;0.70;99.90;;;-3.81;71.96;101381.63;4973058;28;20062;-80
2024/01/10 07:00:10;;;;;;;24.02;13.82;;;-0.90;99.90;;;-3.94;72.22;101359.56;4969466;28;20077;-81
2024/01/10 07:02:39;;;;;;;27.67;15.27;;;-1.80;99.90;;;-3.81;72.36;101395.38;4967777;28;20126;-81
2024/01/10 07:05:10;;;;;;;27.25;15.35;;;-2.10;99.90;;;-3.43;73.02;101450.47;4986831;28;20047;-82
2024/01/10 07:07:38;;;;;;;25.27;14.07;;;-0.90;99.90;;;-4.01;74.52;101363.50;4948810;28;20462;-80
2024/01/10 07:10:13;;;;;;;29.52;14.57;;;-1.40;99.90;;;-3.68;74.16;101429.44;4972931;28;20071;-81
2024/01/10 07:12:42;;;;;;;30.92;15.52;;;-0.50;99.90;;;-3.81;74.41;101418.53;4948620;29;20474;-80
2024/01/10 07:15:11;;;;;;;25.95;15.38;;;0.90;99.90;;;-3.66;74.51;101459.59;4960878;28;20047;-81
2024/01/10 07:17:40;;;;;;;22.23;15.02;;;-1.20;99.90;;;-3.86;75.04;101405.44;4928031;28;20510;-80
2024/01/10 07:20:08;;;;;;;24.60;14.45;;;-1.30;99.90;;;-3.37;74.79;101516.81;4945859;28;20054;-81
2024/01/10 07:22:45;;;;;;;26.70;16.67;;;-1.20;99.90;;;-4.08;75.41;101388.00;4951085;28;20053;-81
2024/01/10 07:25:14;;;;;;;27.55;15.57;;;-1.80;99.90;;;-3.18;75.69;101530.63;4947109;28;20039;-78
2024/01/10 07:27:41;;;;;;;28.13;16.15;;;-1.40;99.90;;;-3.35;75.04;101512.63;4950327;28;20047;-79
2024/01/10 07:30:15;;;;;;;31.13;16.63;;;-1.40;99.90;;;-3.44;76.92;101510.47;4981253;28;20105;-79
2024/01/10 07:32:44;;;;;;;28.10;17.27;;;-1.30;99.90;;;-3.30;77.25;101520.59;4939187;28;20047;-79
2024/01/10 07:35:17;;;;;;;28.98;16.23;;;-1.60;99.90;;;-3.04;76.50;101568.25;4959192;28;20506;-80
2024/01/10 07:37:45;;;;;;;30.35;16.85;;;-2.00;99.90;;;-2.99;77.74;101571.06;4960268;28;20078;-78
2024/01/10 07:40:13;;;;;;;34.47;17.92;;;-1.20;99.90;;;-3.06;78.57;101571.56;4954290;28;20516;-79
2024/01/10 07:42:43;;;;;;;28.10;17.45;;;-1.20;99.90;;;-3.00;79.95;101566.72;4950765;28;20215;-79
2024/01/10 07:45:12;;;;;;;34.72;20.23;;;-1.30;99.90;;;-3.23;79.05;101539.81;4972805;28;20453;-79
2024/01/10 07:47:40;;;;;;;36.65;19.90;;;-1.20;99.90;;;-3.14;79.72;101551.47;4954622;28;20051;-80
2024/01/10 07:50:14;;;;;;;37.67;19.55;;;-1.80;99.90;;;-2.93;79.20;101584.25;4955308;28;20050;-79
2024/01/10 07:52:43;;;;;;;26.35;16.55;;;-1.60;99.90;;;-2.97;80.02;101582.34;4960168;28;20051;-79
2024/01/10 07:55:10;;;;;;;26.70;16.38;;;-1.00;99.90;;;-2.94;81.25;101582.47;4974389;28;20082;-79
2024/01/10 07:57:37;;;;;;;27.85;15.10;;;-0.80;99.90;;;-3.17;80.44;101545.25;4958015;28;20047;-79
2024/01/10 08:00:10;;;;;;;30.08;17.35;;;-1.60;99.90;;;-2.89;80.80;101581.03;4971121;28;20043;-79
2024/01/10 08:02:38;;;;;;;28.88;15.10;;;-1.00;99.90;;;-2.88;79.48;101592.22;4955251;28;20502;-78
2024/01/10 08:05:12;;;;;;;27.17;15.75;;;-0.90;99.90;;;-2.95;81.52;101585.00;4955026;28;20050;-79
2024/01/10 08:07:42;;;;;;;30.58;16.13;;;-0.80;99.90;;;-2.77;83.11;101595.31;4986409;28;20043;-79
2024/01/10 08:10:13;;;;;;;26.10;15.82;;;-0.90;99.90;;;-2.96;84.21;101576.38;4962120;28;20578;-79
2024/01/10 08:12:44;;;;;;;28.77;17.08;;;-1.10;99.90;;;-2.87;83.67;101575.94;4952138;28;20133;-79
2024/01/10 08:15:11;;;;;;;32.17;16.77;;;-1.40;99.90;;;-2.93;83.99;101555.91;4970834;28;20055;-78
2024/01/10 08:17:38;;;;;;;24.85;14.07;;;-0.80;99.90;;;-2.94;83.57;101556.72;4969770;28;20506;-79
2024/01/10 08:20:19;;;;;;;24.90;14.32;;;-1.00;99.90;;;-2.75;82.06;101585.97;4954745;28;20046;-79
2024/01/10 08:22:47;;;;;;;27.90;16.48;;;1.30;99.90;;;-2.63;81.54;101591.75;4970770;28;20070;-78
2024/01/10 08:25:15;;;;;;;23.88;14.90;;;-0.50;99.90;;;-2.80;81.50;101559.13;4972630;28;20047;-79
2024/01/10 08:27:45;;;;;;;27.27;15.93;;;-0.60;99.90;;;-2.71;82.41;101568.19;4956091;28;20063;-79
2024/01/10 08:30:15;;;;;;;24.73;15.75;;;-0.90;99.90;;;-2.55;81.45;101583.53;4961703;28;20057;-79
2024/01/10 08:32:42;;;;;;;26.13;16.10;;;-1.00;99.90;;;-2.95;78.37;101530.91;4970095;28;20077;-79
2024/01/10 08:35:09;;;;;;;27.42;15.27;;;-0.90;99.90;;;-2.57;78.73;101588.59;4957414;28;20081;-79
2024/01/10 08:37:37;;;;;;;19.13;12.75;;;-1.10;99.90;;;-2.65;79.19;101575.34;4957627;28;20055;-79
2024/01/10 08:40:09;;;;;;;27.42;15.23;;;-1.10;99.90;;;-2.50;79.66;101584.63;4970775;28;20444;-78
2024/01/10 08:42:37;;;;;;;26.60;15.82;;;-0.80;99.90;;;-2.58;79.30;101576.53;4963087;28;20042;-79
2024/01/10 08:45:05;;;;;;;24.02;14.02;;;-0.70;99.90;;;-2.81;79.19;101531.59;4970262;28;20072;-79
2024/01/10 08:47:32;;;;;;;28.13;16.40;;;-0.80;99.90;;;-2.47;78.70;101590.81;4967556;28;20138;-80
2024/01/10 08:50:01;;;;;;;29.35;17.63;;;-0.70;99.90;;;-2.55;77.10;101576.66;4931569;28;20076;-79
2024/01/10 08:52:28;;;;;;;27.90;16.25;;;-0.90;99.90;;;-2.37;77.85;101594.75;4953244;28;20066;-81
2024/01/10 08:54:56;;;;;;;29.10;16.00;;;-0.60;99.90;;;-3.20;77.73;101458.47;4958662;28;20078;-84
2024/01/10 08:57:26;;;;;;;29.23;15.02;;;-0.30;99.90;;;-2.74;77.35;101534.53;4959782;28;20054;-81
2024/01/10 08:59:53;;;;;;;22.77;14.02;;;0.50;99.90;;;-3.06;77.51;101484.00;4943757;28;20055;-83
2024/01/10 09:02:24;;;;;;;28.45;16.50;;;0.10;99.90;;;-2.71;77.74;101524.38;4962514;28;20046;-82
2024/01/10 09:04:51;;;;;;;24.38;15.75;;;-1.10;99.90;;;-2.47;77.64;101557.31;4969826;28;20114;-81
2024/01/10 09:07:19;;;;;;;25.35;17.05;;;0.30;99.90;;;-2.81;78.09;101517.03;4938710;28;20047;-80
2024/01/10 09:09:50;;;;;;;23.40;14.68;;;-0.70;99.90;;;-3.26;77.47;101422.09;4964477;28;20061;-80
2024/01/10 09:12:17;;;;;;;27.40;15.30;;;0.50;99.90;;;-2.24;77.04;101590.19;4952761;28;20051;-80
2024/01/10 09:14:44;;;;;;;25.95;16.08;;;1.00;99.90;;;-2.36;76.40;101574.97;4931160;28;20146;-81
2024/01/10 09:17:15;;;;;;;;;;;-0.20;99.90;;;-2.94;76.36;101463.13;4952376;29;20113;-80
2024/01/10 09:19:44;;;;;;;27.30;14.85;;;-0.70;99.90;;;-2.87;76.04;101493.53;4969551;28;20013;-81
2024/01/10 09:22:11;;;;;;;20.67;11.60;;;-0.70;99.90;;;-2.26;76.14;101563.41;4972314;28;20035;-80
2024/01/10 09:24:38;;;;;;;22.45;13.85;;;0.90;99.90;;;-2.29;75.86;101592.53;4960287;28;20106;-81
2024/01/10 09:27:09;;;;;;;27.67;16.10;;;0.40;99.90;;;-2.58;77.18;101525.84;4948274;28;20074;-82
2024/01/10 09:29:36;;;;;;;26.25;15.30;;;1.20;99.90;;;-2.20;76.66;101571.47;4955065;28;20159;-81
2024/01/10 09:32:03;;;;;;;28.40;16.10;;;-0.50;99.90;;;-2.18;75.20;101557.84;4954849;28;20058;-78
2024/01/10 09:34:32;;;;;;;26.13;15.45;;;-0.20;99.90;;;-2.27;75.22;101547.06;4969690;28;20039;-80
2024/01/10 09:36:59;;;;;;;28.08;16.45;;;-0.60;99.90;;;-2.65;75.44;101486.84;4969930;28;20077;-80
2024/01/10 09:39:26;;;;;;;24.33;15.68;;;-0.50;99.90;;;-2.01;75.25;101599.88;4969374;28;20051;-80
2024/01/10 09:41:53;;;;;;;24.98;15.52;;;0.40;99.90;;;-1.84;75.65;101598.91;4957955;28;20051;-79
2024/01/10 09:44:21;;;;;;;26.77;14.88;;;-0.20;99.90;;;-1.79;74.37;101615.50;4947645;28;20047;-79
2024/01/10 09:46:54;;;;;;;25.00;15.65;;;-0.40;99.90;;;-2.57;75.50;101503.56;4961622;28;20433;-79
2024/01/10 09:49:22;;;;;;;28.23;17.25;;;0.70;99.90;;;-1.78;75.07;101604.34;4969967;28;20066;-80
2024/01/10 09:51:57;;;;;;;29.27;15.93;;;-0.10;99.90;;;-1.80;74.23;101595.66;4946571;28;20050;-80
2024/01/10 09:54:26;;;;;;;20.48;13.32;;;-0.20;99.90;;;-1.81;72.89;101597.34;4951457;28;20043;-79
2024/01/10 09:56:53;;;;;;;28.13;15.40;;;-0.20;99.90;;;-1.82;71.82;101602.44;4954816;28;20055;-80
2024/01/10 09:59:20;;;;;;;24.92;14.07;;;0.70;99.90;;;-2.17;72.72;101533.81;4976715;28;20602;-80
2024/01/10 10:01:48;;;;;;;23.73;14.88;;;1.40;99.90;;;-2.08;73.73;101528.19;4952516;28;20051;-80
2024/01/10 10:04:19;;;;;;;29.52;15.88;;;1.60;99.90;;;-1.54;71.50;101614.06;4951889;28;20040;-79